Time;durP1;ratioP1;P1;durP2;ratioP2;P2;SDS_P1;SDS_P2;PMS_P1;PMS_P2;Temp;Humidity;BMP_temperature;BMP_pressure;BME280_temperature;BME280_humidity;BME280_pressure;Samples;Min_cycle;Max_cycle;Signal;HPM_P1;HPM_P2
2023/10/21 06:46:21;;;;;;;3.50;1.00;;;;;;;12.44;92.00;94799.88;2082898;27;20573;-72
2023/10/21 06:47:23;;;;;;;4.20;0.93;;;;;;;12.92;89.75;94793.34;2080747;28;20192;-72
2023/10/21 06:48:24;;;;;;;1.40;0.60;;;;;;;13.44;87.11;94803.88;2080014;28;20559;-72
2023/10/21 06:49:26;;;;;;;2.50;0.85;;;;;;;13.69;85.18;94795.53;2080845;28;20201;-73
2023/10/21 06:50:28;;;;;;;3.35;0.90;;;;;;;14.07;83.64;94805.44;2080430;28;20544;-73
2023/10/21 06:51:30;;;;;;;2.80;0.80;;;;;;;14.28;82.29;94806.16;2081507;28;20216;-72
2023/10/21 06:52:31;;;;;;;3.97;1.23;;;;;;;14.71;80.55;94804.16;2080456;28;20293;-73
2023/10/21 06:53:33;;;;;;;3.25;0.77;;;;;;;14.99;79.27;94799.03;2081480;28;20241;-73
2023/10/21 06:54:34;;;;;;;3.00;1.00;;;;;;;15.04;78.70;94804.69;2080517;28;20709;-73
2023/10/21 06:55:44;;;;;;;3.20;0.85;;;;;;;15.13;77.91;94810.91;2081002;28;20199;-72
2023/10/21 06:56:46;;;;;;;2.97;0.80;;;;;;;15.48;76.43;94822.59;2073358;28;20193;-73
2023/10/21 06:57:47;;;;;;;1.90;0.90;;;;;;;15.30;76.74;94817.22;2072627;28;20209;-72
2023/10/21 06:58:49;;;;;;;3.90;0.90;;;;;;;15.31;76.49;94819.72;2074216;28;20665;-72
2023/10/21 06:59:52;;;;;;;1.83;0.80;;;;;;;15.29;76.26;94815.59;2074352;28;20197;-72
2023/10/21 07:00:54;;;;;;;2.75;0.90;;;;;;;15.39;76.35;94816.38;2072682;28;20213;-73
2023/10/21 07:01:55;;;;;;;1.92;0.80;;;;;;;15.45;75.37;94828.13;2076163;28;20201;-73
2023/10/21 07:02:57;;;;;;;2.03;0.80;;;;;;;15.60;74.58;94825.88;2077592;28;20621;-73
2023/10/21 07:03:59;;;;;;;1.65;0.70;;;;;;;15.73;74.29;94826.38;2074317;28;20198;-73
2023/10/21 07:05:00;;;;;;;1.80;0.65;;;;;;;15.90;73.61;94827.44;2073715;28;20796;-73
2023/10/21 07:06:02;;;;;;;2.85;0.68;;;;;;;15.64;73.73;94827.22;2072848;28;20689;-73
2023/10/21 07:07:03;;;;;;;1.45;0.60;;;;;;;15.78;73.43;94832.03;2073848;28;20251;-73
2023/10/21 07:08:05;;;;;;;1.45;0.60;;;;;;;15.89;72.90;94836.31;2074061;28;20205;-72
2023/10/21 07:09:07;;;;;;;1.50;0.70;;;;;;;15.87;73.21;94837.41;2075594;28;20201;-72
2023/10/21 07:10:09;;;;;;;1.73;0.68;;;;;;;15.86;72.13;94833.97;2074473;28;20232;-72
2023/10/21 07:11:11;;;;;;;1.20;0.60;;;;;;;15.93;72.60;94834.22;2076454;28;20451;-73
2023/10/21 07:12:16;;;;;;;1.70;0.60;;;;;;;16.16;72.00;94839.91;2076906;28;20193;-73
2023/10/21 07:13:18;;;;;;;1.38;0.65;;;;;;;16.16;71.93;94843.38;2073286;28;20193;-73
2023/10/21 07:14:19;;;;;;;1.95;0.63;;;;;;;16.16;71.75;94845.19;2072104;28;20243;-72
2023/10/21 07:15:23;;;;;;;2.45;0.52;;;;;;;16.20;71.30;94843.09;2073381;28;20181;-71
2023/10/21 07:16:24;;;;;;;2.17;0.73;;;;;;;16.08;71.72;94853.00;2072816;28;20632;-71
2023/10/21 07:17:26;;;;;;;1.30;0.60;;;;;;;16.05;72.00;94856.75;2072293;28;20198;-72
2023/10/21 07:18:27;;;;;;;1.98;0.70;;;;;;;16.12;71.74;94846.44;2073086;28;20475;-72
2023/10/21 07:19:29;;;;;;;2.00;0.80;;;;;;;16.02;71.64;94853.56;2072223;28;20649;-71
2023/10/21 07:20:31;;;;;;;2.75;0.70;;;;;;;16.16;71.56;94847.81;2074346;28;20182;-70
2023/10/21 07:21:32;;;;;;;1.30;0.55;;;;;;;16.07;71.22;94854.78;2074901;28;20386;-72
2023/10/21 07:22:34;;;;;;;7.25;0.60;;;;;;;16.24;71.05;94850.56;2073170;28;20750;-70
2023/10/21 07:23:38;;;;;;;1.45;0.60;;;;;;;16.24;71.04;94852.34;2073590;28;20198;-70
2023/10/21 07:24:39;;;;;;;2.15;0.60;;;;;;;16.33;70.84;94862.81;2072236;28;20621;-70
2023/10/21 07:25:42;;;;;;;1.50;0.60;;;;;;;16.24;71.05;94853.19;2073688;28;20256;-70
2023/10/21 07:26:43;;;;;;;1.20;0.60;;;;;;;16.33;71.10;94859.38;2074363;28;20208;-70
2023/10/21 07:27:46;;;;;;;2.17;0.60;;;;;;;16.40;70.57;94862.25;2073856;28;20205;-70
2023/10/21 07:28:47;;;;;;;1.20;0.60;;;;;;;16.63;70.00;94866.13;2071676;28;20502;-70
2023/10/21 07:29:49;;;;;;;2.10;0.60;;;;;;;16.48;70.13;94855.25;2073752;28;20266;-70
2023/10/21 07:30:52;;;;;;;1.10;0.50;;;;;;;16.59;69.93;94869.19;2071838;28;20259;-70
2023/10/21 07:31:54;;;;;;;1.23;0.57;;;;;;;16.77;69.30;94877.94;2074847;28;20706;-70
2023/10/21 07:32:56;;;;;;;1.92;0.68;;;;;;;16.51;69.00;94869.13;2073778;28;20213;-70
2023/10/21 07:33:58;;;;;;;1.30;0.50;;;;;;;15.81;71.35;94871.25;2073919;28;20205;-70
2023/10/21 07:34:59;;;;;;;1.70;0.70;;;;;;;16.20;71.28;94883.44;2074120;28;20653;-70
2023/10/21 07:36:04;;;;;;;2.35;0.60;;;;;;;16.72;69.39;94877.56;2072166;28;20696;-70
2023/10/21 07:37:06;;;;;;;1.75;0.70;;;;;;;16.77;68.63;94869.19;2074909;28;20920;-69
2023/10/21 07:38:07;;;;;;;1.08;0.50;;;;;;;16.88;68.09;94884.78;2074011;28;20374;-70
2023/10/21 07:39:09;;;;;;;1.38;0.70;;;;;;;16.84;68.19;94882.63;2074389;28;20198;-72
2023/10/21 07:40:11;;;;;;;4.72;2.03;;;;;;;16.92;67.73;94888.00;2071343;28;20202;-70
2023/10/21 07:41:13;;;;;;;1.80;0.75;;;;;;;16.92;67.13;94874.81;2073851;28;20225;-70
2023/10/21 07:42:15;;;;;;;6.20;2.83;;;;;;;16.93;67.02;94882.56;2072314;28;20331;-72
2023/10/21 07:43:18;;;;;;;3.28;1.50;;;;;;;16.97;66.83;94883.91;2072824;28;20260;-70
2023/10/21 07:44:19;;;;;;;3.63;1.08;;;;;;;17.09;66.58;94886.31;2072694;28;20196;-73
2023/10/21 07:45:25;;;;;;;2.17;0.60;;;;;;;17.37;65.85;94880.94;2075623;28;20193;-73
2023/10/21 07:46:28;;;;;;;5.00;0.70;;;;;;;17.31;66.20;94882.41;2074131;28;20248;-73
2023/10/21 07:47:30;;;;;;;2.15;0.82;;;;;;;17.46;65.90;94891.41;2075595;28;20646;-73
2023/10/21 07:48:31;;;;;;;1.50;0.60;;;;;;;17.62;65.39;94890.72;2074643;28;20246;-72
2023/10/21 07:49:33;;;;;;;2.65;0.70;;;;;;;17.28;65.32;94886.16;2073788;28;20194;-73
2023/10/21 07:50:34;;;;;;;1.33;0.70;;;;;;;17.65;64.78;94888.72;2073926;28;20197;-72
2023/10/21 07:51:36;;;;;;;1.45;0.60;;;;;;;17.66;64.67;94893.03;2076344;28;20190;-73
2023/10/21 07:52:37;;;;;;;1.48;0.60;;;;;;;18.00;64.35;94897.56;2079176;28;20201;-73
2023/10/21 07:53:42;;;;;;;1.63;0.70;;;;;;;18.07;63.85;94903.88;2078971;28;20577;-73
2023/10/21 07:54:44;;;;;;;1.50;0.60;;;;;;;18.69;62.16;94900.97;2074267;28;20557;-73
2023/10/21 07:55:48;;;;;;;2.88;0.70;;;;;;;18.44;62.10;94915.91;2072846;28;20202;-72
2023/10/21 07:56:52;;;;;;;2.38;0.70;;;;;;;18.02;63.35;94912.25;2072684;28;20218;-72
2023/10/21 07:57:54;;;;;;;1.67;0.60;;;;;;;18.18;62.86;94918.59;2067545;28;20197;-72
2023/10/21 07:58:55;;;;;;;4.20;1.02;;;;;;;18.02;63.03;94925.47;2070030;28;20212;-72
2023/10/21 08:00:00;;;;;;;3.42;0.80;;;;;;;18.47;63.06;94914.78;2064743;28;20403;-72
2023/10/21 08:01:03;;;;;;;3.30;0.75;;;;;;;18.57;62.12;94923.41;2068755;28;20250;-72
2023/10/21 08:02:05;;;;;;;2.15;0.70;;;;;;;18.58;62.31;94931.16;2069353;28;20256;-71
2023/10/21 08:03:07;;;;;;;4.00;1.00;;;;;;;18.60;62.39;94937.13;2069986;28;20194;-73
2023/10/21 08:04:08;;;;;;;2.00;0.70;;;;;;;18.35;62.35;94949.41;2068644;28;20926;-74
2023/10/21 08:05:10;;;;;;;1.70;0.63;;;;;;;18.47;61.49;94949.13;2067567;28;20205;-73
2023/10/21 08:06:12;;;;;;;2.22;0.60;;;;;;;18.42;62.25;94947.78;2068048;28;20232;-74
2023/10/21 08:07:13;;;;;;;2.13;0.68;;;;;;;17.60;64.53;94960.47;2067107;28;20206;-74
2023/10/21 08:08:15;;;;;;;7.43;0.75;;;;;;;16.87;66.27;94951.66;2068169;28;20193;-72
2023/10/21 08:09:17;;;;;;;1.33;0.60;;;;;;;16.57;66.44;94947.53;2067179;28;20261;-72
2023/10/21 08:10:19;;;;;;;1.95;0.70;;;;;;;16.86;65.91;94955.31;2068584;28;20197;-72
2023/10/21 08:11:21;;;;;;;2.45;0.60;;;;;;;17.24;64.78;94944.63;2067801;28;20266;-72
2023/10/21 08:12:23;;;;;;;3.22;0.82;;;;;;;17.58;63.71;94936.03;2068039;28;20198;-67
2023/10/21 08:13:24;;;;;;;1.95;0.80;;;;;;;17.48;64.23;94953.75;2066211;28;20260;-71
2023/10/21 08:14:27;;;;;;;1.95;0.60;;;;;;;17.62;63.39;94961.13;2067682;28;20237;-69
2023/10/21 08:15:29;;;;;;;1.73;1.00;;;;;;;17.25;64.00;94956.84;2069019;28;20664;-69
2023/10/21 08:16:31;;;;;;;2.90;1.45;;;;;;;16.33;66.44;94956.81;2065989;28;20659;-70
2023/10/21 08:17:33;;;;;;;2.42;0.90;;;;;;;16.91;65.30;94965.41;2068072;28;20198;-70
2023/10/21 08:18:35;;;;;;;1.80;0.70;;;;;;;17.30;63.95;94975.69;2067432;28;20672;-69
2023/10/21 08:19:37;;;;;;;2.97;0.63;;;;;;;17.75;63.40;94966.00;2069576;28;20605;-74
2023/10/21 08:20:39;;;;;;;1.58;0.50;;;;;;;18.20;62.04;94962.38;2066601;28;20197;-73
2023/10/21 08:21:40;;;;;;;2.35;1.05;;;;;;;18.37;61.52;94971.22;2068272;28;20240;-71
2023/10/21 08:22:42;;;;;;;2.05;0.85;;;;;;;18.68;60.46;94973.34;2067636;28;20646;-71
2023/10/21 08:23:44;;;;;;;3.60;1.17;;;;;;;19.03;59.67;94962.72;2067202;28;20190;-71
2023/10/21 08:24:45;;;;;;;2.25;0.70;;;;;;;19.28;59.88;94968.06;2071660;28;20630;-72
2023/10/21 08:25:47;;;;;;;1.35;0.60;;;;;;;19.42;58.63;94972.72;2070815;28;20246;-70
2023/10/21 08:26:48;;;;;;;1.40;0.60;;;;;;;19.58;58.51;94969.25;2068126;28;20218;-71
2023/10/21 08:27:50;;;;;;;2.28;0.70;;;;;;;19.79;58.22;94973.22;2066394;28;20202;-71
2023/10/21 08:28:51;;;;;;;2.67;0.85;;;;;;;19.81;58.00;94981.84;2068696;28;20648;-71
2023/10/21 08:29:53;;;;;;;1.20;0.60;;;;;;;19.57;57.23;94973.72;2068409;28;20240;-71
2023/10/21 08:30:55;;;;;;;2.10;0.73;;;;;;;19.90;56.88;94975.56;2067664;28;20241;-71
2023/10/21 08:31:57;;;;;;;3.50;0.60;;;;;;;19.58;57.58;94969.25;2069018;28;20661;-71
2023/10/21 08:32:58;;;;;;;1.40;0.70;;;;;;;19.25;57.99;94985.91;2068634;28;20298;-72
2023/10/21 08:34:00;;;;;;;1.13;0.50;;;;;;;19.09;57.83;94986.69;2068111;28;20311;-71
2023/10/21 08:35:03;;;;;;;1.10;0.50;;;;;;;18.98;58.20;94987.03;2068238;28;20280;-71
2023/10/21 08:36:04;;;;;;;1.83;0.70;;;;;;;19.31;57.74;94981.81;2067359;28;20729;-71
2023/10/21 08:37:07;;;;;;;1.40;0.60;;;;;;;19.55;57.43;94991.59;2068174;28;20288;-73
2023/10/21 08:38:09;;;;;;;1.30;0.60;;;;;;;18.93;57.98;94984.00;2069355;28;20203;-72
2023/10/21 08:39:12;;;;;;;1.45;0.70;;;;;;;19.17;57.78;94985.06;2066494;28;20251;-72
2023/10/21 08:40:13;;;;;;;2.45;0.63;;;;;;;19.35;57.88;94984.94;2067127;28;20202;-72
2023/10/21 08:41:15;;;;;;;1.40;0.60;;;;;;;19.25;57.28;94980.63;2067271;28;20225;-72
2023/10/21 08:42:17;;;;;;;1.58;0.60;;;;;;;19.73;55.86;94972.91;2067850;28;20284;-72
2023/10/21 08:43:19;;;;;;;4.60;1.25;;;;;;;19.26;56.70;94973.50;2066245;28;20349;-72
2023/10/21 08:44:22;;;;;;;1.45;0.60;;;;;;;17.83;60.01;94976.63;2068943;28;20659;-71
2023/10/21 08:45:24;;;;;;;1.73;0.63;;;;;;;17.55;60.67;94971.47;2068644;28;20199;-71
2023/10/21 08:46:26;;;;;;;1.42;0.50;;;;;;;17.61;60.62;94981.41;2068620;28;20592;-72
2023/10/21 08:47:30;;;;;;;1.50;0.60;;;;;;;18.24;59.45;94982.19;2067057;28;20593;-71
2023/10/21 08:48:34;;;;;;;1.67;0.65;;;;;;;18.86;57.88;94980.34;2068285;28;20737;-71
2023/10/21 08:49:36;;;;;;;2.05;0.60;;;;;;;19.38;56.99;94987.28;2069352;28;20193;-73
2023/10/21 08:50:39;;;;;;;1.50;0.60;;;;;;;19.61;55.72;94989.28;2066644;28;20541;-71
2023/10/21 08:51:41;;;;;;;2.28;0.60;;;;;;;20.30;55.44;94989.75;2065435;28;20204;-71
2023/10/21 08:52:43;;;;;;;1.60;0.60;;;;;;;20.55;54.76;94993.13;2068590;28;20193;-72
2023/10/21 08:53:46;;;;;;;1.85;0.68;;;;;;;20.39;54.83;94988.72;2067363;28;20331;-72
2023/10/21 08:54:48;;;;;;;1.92;0.70;;;;;;;20.81;54.27;94993.91;2065597;28;20194;-72
2023/10/21 08:55:50;;;;;;;1.40;0.57;;;;;;;21.23;52.71;94999.84;2064365;28;20618;-72
2023/10/21 08:56:51;;;;;;;1.90;0.57;;;;;;;20.14;54.70;94997.72;2066481;28;20201;-72
2023/10/21 08:57:54;;;;;;;2.03;0.60;;;;;;;19.62;56.62;94998.84;2068503;28;20252;-72
2023/10/21 08:58:56;;;;;;;1.50;0.70;;;;;;;19.92;56.16;95007.16;2067948;28;20229;-72
2023/10/21 08:59:57;;;;;;;2.72;0.77;;;;;;;18.89;57.48;95014.38;2067295;28;20202;-72
2023/10/21 09:00:59;;;;;;;1.50;0.60;;;;;;;18.23;59.70;95012.25;2066574;28;20317;-72
2023/10/21 09:02:00;;;;;;;3.95;0.75;;;;;;;17.81;60.69;95018.19;2067869;28;20194;-72
2023/10/21 09:03:03;;;;;;;1.65;0.60;;;;;;;16.93;61.56;95029.38;2068536;28;20362;-71
2023/10/21 09:04:05;;;;;;;1.40;0.52;;;;;;;16.37;63.26;95029.31;2067100;28;20259;-72
2023/10/21 09:05:11;;;;;;;3.03;0.70;;;;;;;17.33;61.24;95027.31;2066925;28;20202;-71
2023/10/21 09:06:13;;;;;;;1.75;0.70;;;;;;;16.77;62.21;95033.44;2067462;28;20225;-71
2023/10/21 09:07:15;;;;;;;1.85;0.60;;;;;;;17.13;61.71;95033.56;2067239;28;20214;-72
2023/10/21 09:08:16;;;;;;;1.90;0.70;;;;;;;16.79;62.59;95039.38;2066632;28;20264;-72
2023/10/21 09:09:26;;;;;;;1.77;0.70;;;;;;;16.77;63.03;95038.72;2066582;28;20194;-69
2023/10/21 09:10:30;;;;;;;2.28;0.68;;;;;;;17.70;60.80;95047.44;2067520;28;20553;-69
2023/10/21 09:11:31;;;;;;;2.25;0.52;;;;;;;17.23;61.80;95045.84;2066110;28;20221;-70
2023/10/21 09:12:33;;;;;;;1.70;0.60;;;;;;;16.54;63.54;95043.50;2068224;28;20351;-69
2023/10/21 09:13:36;;;;;;;1.23;0.55;;;;;;;16.45;64.08;95049.66;2067571;28;20562;-70
2023/10/21 09:15:01;;;;;;;1.80;0.70;;;;;;;16.53;64.32;95048.94;2068219;28;20205;-70
2023/10/21 09:16:08;;;;;;;2.13;0.80;;;;;;;16.69;63.84;95046.50;2066408;28;20217;-70
2023/10/21 09:17:11;;;;;;;4.32;0.70;;;;;;;16.61;63.77;95049.88;2066705;28;20198;-70
2023/10/21 09:18:13;;;;;;;2.55;0.68;;;;;;;16.93;63.52;95051.28;2066360;28;20195;-70
2023/10/21 09:19:26;;;;;;;2.53;0.70;;;;;;;16.98;63.49;95046.41;2067620;28;20209;-70
2023/10/21 09:20:30;;;;;;;4.05;0.70;;;;;;;16.53;63.22;95051.56;2067576;28;20190;-70
2023/10/21 09:21:37;;;;;;;1.88;0.60;;;;;;;16.20;64.31;95053.75;2070637;28;20665;-70
2023/10/21 09:22:40;;;;;;;2.10;0.60;;;;;;;16.07;64.43;95040.88;2070328;28;20198;-69
2023/10/21 09:23:51;;;;;;;1.63;0.60;;;;;;;15.68;63.91;95050.44;2066563;28;20199;-70
2023/10/21 09:25:28;;;;;;;6.15;0.80;;;;;;;15.21;64.88;95049.44;2066416;28;20208;-69
2023/10/21 09:26:34;;;;;;;1.67;0.60;;;;;;;15.11;65.86;95038.91;2058611;28;20250;-70
2023/10/21 09:27:38;;;;;;;3.75;0.73;;;;;;;14.96;65.50;95048.97;2057564;28;20218;-70
2023/10/21 09:28:39;;;;;;;4.05;0.85;;;;;;;15.59;64.56;95042.53;2057166;28;20202;-70
2023/10/21 09:29:41;;;;;;;2.80;0.90;;;;;;;15.80;63.32;95043.22;2058348;28;20233;-70
2023/10/21 09:30:56;;;;;;;2.30;0.70;;;;;;;15.50;64.43;95031.91;2065985;28;20229;-73
2023/10/21 09:31:57;;;;;;;2.75;0.70;;;;;;;15.49;64.97;95032.00;2063504;28;20199;-73
2023/10/21 09:33:07;;;;;;;2.17;0.77;;;;;;;15.51;65.39;95041.47;2057540;28;20682;-70
2023/10/21 09:34:10;;;;;;;2.47;0.80;;;;;;;15.49;65.72;95037.28;2064432;28;20772;-71
2023/10/21 09:35:30;;;;;;;2.03;0.70;;;;;;;15.13;66.05;95029.09;2066004;28;20210;-69
2023/10/21 09:36:42;;;;;;;7.68;0.90;;;;;;;15.21;65.04;95049.44;2064841;28;20728;-69
2023/10/21 09:37:44;;;;;;;3.10;0.77;;;;;;;15.39;64.38;95039.91;2065145;28;20185;-72
2023/10/21 09:38:50;;;;;;;4.82;1.00;;;;;;;15.86;62.96;95052.41;2057970;28;20647;-73
2023/10/21 09:39:52;;;;;;;2.80;0.90;;;;;;;16.48;61.75;95044.94;2058769;28;20199;-72
2023/10/21 09:40:55;;;;;;;1.92;0.70;;;;;;;16.85;60.92;95042.41;2064321;28;20221;-70
2023/10/21 09:41:59;;;;;;;2.45;0.70;;;;;;;17.09;60.25;95041.91;2058012;28;20207;-68
2023/10/21 09:43:03;;;;;;;5.32;3.50;;;;;;;16.50;62.00;95044.78;2059784;28;20276;-67
2023/10/21 09:44:07;;;;;;;1.30;0.70;;;;;;;16.91;61.43;95047.97;2066647;28;20338;-67
2023/10/21 09:45:10;;;;;;;1.52;0.60;;;;;;;16.86;62.14;95046.72;2067206;28;20190;-68
2023/10/21 09:46:13;;;;;;;1.83;0.60;;;;;;;16.70;61.00;95047.34;2064414;28;20608;-73
2023/10/21 09:47:15;;;;;;;2.35;0.70;;;;;;;16.56;61.46;95043.41;2067224;28;20206;-73
2023/10/21 09:48:17;;;;;;;3.75;0.70;;;;;;;16.49;61.36;95054.50;2065922;28;20214;-72
2023/10/21 09:49:22;;;;;;;3.38;0.70;;;;;;;16.55;60.81;95052.25;2067095;28;20198;-72
2023/10/21 09:50:24;;;;;;;1.55;0.60;;;;;;;16.89;59.67;95059.63;2072585;28;20233;-72
2023/10/21 09:51:32;;;;;;;2.58;0.65;;;;;;;16.83;59.90;95058.38;2073588;28;20213;-72
2023/10/21 09:52:44;;;;;;;2.33;0.60;;;;;;;17.07;59.07;95064.97;2074114;28;20201;-72
2023/10/21 09:53:56;;;;;;;3.15;0.90;;;;;;;16.35;60.16;95067.28;2073158;28;20826;-72
2023/10/21 09:55:07;;;;;;;1.38;0.60;;;;;;;16.05;61.63;95054.19;2064847;28;20209;-73
2023/10/21 09:56:11;;;;;;;1.75;0.70;;;;;;;15.96;61.84;95063.75;2066381;28;20233;-72
2023/10/21 09:57:13;;;;;;;3.05;0.70;;;;;;;15.75;61.67;95057.78;2066250;28;20213;-72
2023/10/21 09:58:16;;;;;;;1.65;0.63;;;;;;;15.74;62.51;95061.38;2064361;28;20206;-72
2023/10/21 09:59:19;;;;;;;2.13;0.75;;;;;;;15.47;62.98;95063.72;2074768;28;20606;-72
2023/10/21 10:00:22;;;;;;;2.30;0.70;;;;;;;15.38;62.85;95064.56;2073077;28;20211;-72
2023/10/21 10:01:24;;;;;;;2.45;0.68;;;;;;;15.27;62.99;95065.50;2065683;28;20670;-72
2023/10/21 10:02:26;;;;;;;4.28;0.70;;;;;;;15.24;63.40;95067.59;2067941;28;20201;-71
2023/10/21 10:03:34;;;;;;;2.00;0.75;;;;;;;15.40;63.14;95069.66;2067432;28;20195;-72
2023/10/21 10:04:36;;;;;;;3.60;0.88;;;;;;;15.44;62.67;95053.50;2065856;28;20199;-72
2023/10/21 10:05:41;;;;;;;3.38;0.70;;;;;;;15.30;62.43;95051.25;2070258;28;20213;-72
2023/10/21 10:06:46;;;;;;;1.67;0.70;;;;;;;15.30;62.74;95052.09;2069843;28;20555;-72
2023/10/21 10:07:50;;;;;;;1.33;0.50;;;;;;;16.65;59.26;95053.06;2066609;28;20215;-72
2023/10/21 10:08:52;;;;;;;3.80;0.70;;;;;;;17.70;57.23;95052.72;2067169;28;20189;-72
2023/10/21 10:09:54;;;;;;;2.67;0.68;;;;;;;18.03;55.73;95063.59;2068230;28;20197;-72
2023/10/21 10:10:58;;;;;;;2.40;0.70;;;;;;;17.52;56.02;95047.47;2066797;28;20584;-72
2023/10/21 10:12:03;;;;;;;2.88;0.70;;;;;;;17.65;56.17;95050.56;2066391;28;20198;-72
2023/10/21 10:13:10;;;;;;;2.47;0.82;;;;;;;18.16;54.57;95039.44;2067249;28;20202;-72
2023/10/21 10:14:14;;;;;;;1.88;0.60;;;;;;;18.26;54.56;95050.75;2067965;28;20198;-73
2023/10/21 10:15:37;;;;;;;3.58;0.85;;;;;;;18.33;55.23;95050.94;2067474;28;20209;-68
2023/10/21 10:16:44;;;;;;;2.35;0.80;;;;;;;19.47;53.59;95043.69;2076970;28;20217;-69
2023/10/21 10:17:48;;;;;;;5.38;1.25;;;;;;;18.52;55.15;95053.38;2075436;28;20194;-69
2023/10/21 10:18:51;;;;;;;2.58;0.80;;;;;;;18.00;56.42;95054.16;2074522;28;20200;-68
2023/10/21 10:19:53;;;;;;;3.85;0.80;;;;;;;18.69;54.36;95056.94;2074684;28;20199;-67
2023/10/21 10:20:56;;;;;;;1.17;0.60;;;;;;;19.10;53.06;95058.97;2073365;28;20723;-68
2023/10/21 10:21:57;;;;;;;1.30;0.57;;;;;;;18.83;53.20;95062.59;2076964;28;20194;-68
2023/10/21 10:23:00;;;;;;;2.00;0.70;;;;;;;18.13;54.61;95079.38;2076710;28;20335;-68
2023/10/21 10:24:06;;;;;;;3.00;0.70;;;;;;;17.89;55.23;95065.78;2074939;28;20724;-68
2023/10/21 10:25:11;;;;;;;3.63;0.70;;;;;;;18.66;54.33;95064.34;2074573;28;20200;-68
2023/10/21 10:26:16;;;;;;;5.30;0.70;;;;;;;17.89;54.77;95068.44;2068866;28;20266;-68
2023/10/21 10:27:24;;;;;;;1.52;0.50;;;;;;;18.65;53.91;95086.47;2068406;28;20207;-68
2023/10/21 10:28:27;;;;;;;3.03;1.13;;;;;;;18.80;53.43;95065.59;2067726;28;20260;-68
2023/10/21 10:29:29;;;;;;;2.28;0.90;;;;;;;18.67;53.49;95076.59;2067541;28;20191;-67
2023/10/21 10:30:32;;;;;;;4.78;1.00;;;;;;;17.93;54.47;95072.44;2066490;28;20606;-65
2023/10/21 10:31:34;;;;;;;6.18;3.30;;;;;;;17.06;57.25;95076.47;2066795;28;20833;-65
2023/10/21 10:32:43;;;;;;;2.60;0.80;;;;;;;16.56;58.49;95078.47;2067223;28;20194;-65
2023/10/21 10:33:50;;;;;;;1.73;0.65;;;;;;;16.07;59.50;95078.56;2065472;28;20190;-65
2023/10/21 10:34:53;;;;;;;4.15;0.80;;;;;;;16.65;58.98;95082.03;2066247;28;20197;-68
2023/10/21 10:35:56;;;;;;;2.38;0.70;;;;;;;16.04;59.71;95072.78;2066668;28;20260;-68
2023/10/21 10:36:58;;;;;;;2.75;0.70;;;;;;;15.79;59.85;95075.78;2066791;28;20193;-68
2023/10/21 10:38:00;;;;;;;2.65;0.65;;;;;;;15.62;60.74;95082.56;2067082;28;20183;-68
2023/10/21 10:39:04;;;;;;;3.45;0.80;;;;;;;15.46;61.22;95071.75;2065419;28;20198;-68
2023/10/21 10:40:19;;;;;;;3.67;0.95;;;;;;;15.30;61.62;95078.38;2066798;28;20194;-68
2023/10/21 10:41:21;;;;;;;1.88;0.88;;;;;;;15.27;61.89;95091.78;2066252;28;20226;-69
2023/10/21 10:42:29;;;;;;;4.50;0.80;;;;;;;15.16;62.26;95082.22;2066546;28;20194;-68
2023/10/21 10:43:31;;;;;;;3.25;0.80;;;;;;;15.40;61.50;95088.94;2068052;28;20197;-68
2023/10/21 10:44:34;;;;;;;1.83;0.80;;;;;;;15.30;62.09;95088.91;2065869;28;20700;-68
2023/10/21 10:45:36;;;;;;;2.50;0.80;;;;;;;15.14;62.17;95086.78;2066508;28;20197;-68
2023/10/21 10:46:41;;;;;;;2.67;0.80;;;;;;;15.11;62.31;95089.69;2067884;28;20190;-68
2023/10/21 10:47:43;;;;;;;4.03;0.90;;;;;;;15.09;62.58;95083.72;2067536;28;20694;-68
2023/10/21 10:48:46;;;;;;;2.03;0.70;;;;;;;15.08;62.41;95081.25;2065579;28;20552;-68
2023/10/21 10:49:58;;;;;;;6.20;0.93;;;;;;;15.05;62.92;95082.34;2065723;28;20249;-68
2023/10/21 10:51:01;;;;;;;3.75;0.90;;;;;;;15.07;62.81;95074.31;2067363;28;20221;-68
2023/10/21 10:52:04;;;;;;;3.17;0.80;;;;;;;15.30;62.44;95088.91;2067620;28;20289;-68
2023/10/21 10:53:22;;;;;;;3.35;0.90;;;;;;;16.46;59.28;95088.19;2068151;28;20221;-67
2023/10/21 10:54:25;;;;;;;3.97;0.77;;;;;;;15.96;60.52;95084.81;2066214;28;20276;-70
2023/10/21 10:55:27;;;;;;;2.33;0.77;;;;;;;15.73;61.09;95091.28;2068787;28;20197;-68
2023/10/21 10:56:46;;;;;;;7.32;1.02;;;;;;;15.59;61.97;95085.50;2064619;28;20286;-69
2023/10/21 10:57:51;;;;;;;6.32;0.93;;;;;;;15.82;62.19;95095.75;2066039;28;20250;-69
2023/10/21 10:58:53;;;;;;;3.15;0.80;;;;;;;15.99;61.69;95094.25;2066225;28;20213;-69
2023/10/21 10:59:54;;;;;;;4.07;0.80;;;;;;;15.99;61.61;95084.53;2065389;28;20190;-72
2023/10/21 11:00:56;;;;;;;9.75;2.97;;;;;;;15.86;61.14;95089.25;2066321;28;20692;-73
2023/10/21 11:02:00;;;;;;;7.50;3.70;;;;;;;15.73;61.82;95102.66;2067007;28;20186;-71
2023/10/21 11:03:02;;;;;;;8.38;4.30;;;;;;;15.52;62.02;95100.97;2064800;28;20224;-71
2023/10/21 11:04:05;;;;;;;4.53;2.88;;;;;;;15.42;62.00;95091.41;2066492;28;20398;-75
2023/10/21 11:05:08;;;;;;;1.92;0.80;;;;;;;15.43;62.68;95093.91;2066720;28;20204;-75
2023/10/21 11:06:12;;;;;;;2.83;0.80;;;;;;;15.49;62.84;95085.47;2066260;28;20696;-76
2023/10/21 11:07:13;;;;;;;2.35;0.70;;;;;;;15.42;63.52;95084.34;2066602;28;20197;-66
2023/10/21 11:08:15;;;;;;;4.22;0.95;;;;;;;15.43;64.07;95088.66;2065478;28;20432;-66
2023/10/21 11:09:30;;;;;;;4.22;0.90;;;;;;;15.40;63.90;95082.81;2067360;28;20231;-66
2023/10/21 11:10:32;;;;;;;1.92;0.70;;;;;;;15.32;64.17;95086.94;2067468;28;20259;-67
2023/10/21 11:11:48;;;;;;;4.07;0.85;;;;;;;15.25;64.40;95087.63;2066643;28;20207;-66
2023/10/21 11:13:07;;;;;;;1.33;0.60;;;;;;;15.32;64.47;95092.22;2066651;28;20195;-66
2023/10/21 11:14:10;;;;;;;3.45;0.88;;;;;;;15.14;63.86;95089.41;2066767;28;20285;-65
2023/10/21 11:15:12;;;;;;;1.60;0.70;;;;;;;15.09;63.74;95090.78;2065368;28;20281;-66
2023/10/21 11:16:15;;;;;;;3.97;0.82;;;;;;;15.08;63.85;95084.69;2064831;28;20244;-67
2023/10/21 11:17:17;;;;;;;2.28;0.70;;;;;;;15.19;63.90;95079.31;2066015;28;20201;-66
2023/10/21 11:18:20;;;;;;;1.95;0.73;;;;;;;15.20;63.74;95074.91;2065696;28;20589;-66
2023/10/21 11:19:23;;;;;;;5.53;0.93;;;;;;;15.19;63.42;95081.94;2062996;28;20194;-66
2023/10/21 11:20:26;;;;;;;1.40;0.70;;;;;;;15.40;63.64;95081.03;2063595;28;20665;-66
2023/10/21 11:21:35;;;;;;;1.77;0.90;;;;;;;15.28;63.68;95087.38;2066191;28;20300;-66
2023/10/21 11:22:36;;;;;;;2.13;0.70;;;;;;;15.22;63.96;95091.38;2066219;28;20245;-67
2023/10/21 11:23:38;;;;;;;2.33;0.80;;;;;;;15.18;64.09;95090.81;2065929;28;20210;-66
2023/10/21 11:24:39;;;;;;;2.10;0.70;;;;;;;15.17;63.82;95093.56;2063072;28;20202;-66
2023/10/21 11:25:42;;;;;;;3.55;0.90;;;;;;;15.19;64.27;95089.84;2065056;28;20198;-67
2023/10/21 11:26:45;;;;;;;2.45;0.75;;;;;;;15.25;63.71;95079.75;2065311;28;20187;-66
2023/10/21 11:27:46;;;;;;;3.85;0.90;;;;;;;15.32;63.66;95088.75;2067658;28;20652;-66
2023/10/21 11:28:48;;;;;;;2.40;0.80;;;;;;;15.29;63.95;95087.22;2067848;28;20205;-66
2023/10/21 11:29:52;;;;;;;4.55;0.80;;;;;;;15.31;62.66;95079.19;2065986;28;20197;-66
2023/10/21 11:30:55;;;;;;;2.75;0.77;;;;;;;15.40;63.26;95083.66;2064889;28;20219;-67
2023/10/21 11:31:57;;;;;;;2.83;0.80;;;;;;;15.24;63.23;95064.97;2069698;28;20318;-66
2023/10/21 11:33:05;;;;;;;3.10;0.75;;;;;;;15.35;63.22;95075.34;2070963;28;20804;-66
2023/10/21 11:34:09;;;;;;;4.38;1.05;;;;;;;15.42;62.59;95080.91;2068388;28;20194;-66
2023/10/21 11:35:13;;;;;;;3.83;0.90;;;;;;;15.34;62.77;95079.78;2069700;28;20209;-66
2023/10/21 11:36:16;;;;;;;7.13;0.90;;;;;;;15.31;62.93;95084.47;2067547;28;20489;-66
2023/10/21 11:37:18;;;;;;;5.75;1.00;;;;;;;15.31;63.64;95093.19;2067967;28;20194;-66
2023/10/21 11:38:21;;;;;;;5.05;1.00;;;;;;;15.24;63.54;95102.59;2068531;28;20638;-66
2023/10/21 11:39:23;;;;;;;1.92;0.80;;;;;;;15.25;63.61;95106.03;2068384;28;20244;-67
2023/10/21 11:40:25;;;;;;;2.25;0.70;;;;;;;15.26;63.79;95110.34;2068003;28;20250;-66
2023/10/21 11:41:27;;;;;;;2.05;0.68;;;;;;;15.18;63.67;95109.22;2068400;28;20232;-66
2023/10/21 11:42:28;;;;;;;2.10;0.70;;;;;;;15.12;63.81;95107.13;2065272;28;20293;-66
2023/10/21 11:43:31;;;;;;;1.52;0.70;;;;;;;15.08;64.20;95110.97;2068054;28;20202;-66
2023/10/21 11:44:33;;;;;;;5.03;0.63;;;;;;;15.05;63.71;95115.69;2067772;28;20205;-66
2023/10/21 11:45:34;;;;;;;4.07;0.90;;;;;;;15.04;63.89;95117.47;2065962;28;20225;-66